createdAt,value
2023-05-07T00:02:20.746Z,2.00
2023-05-07T00:04:48.105Z,1.97
2023-05-07T00:07:15.714Z,1.80
2023-05-07T00:09:43.407Z,1.90
2023-05-07T00:12:10.775Z,2.07
2023-05-07T00:14:37.939Z,2.00
2023-05-07T00:17:05.132Z,1.87
2023-05-07T00:19:32.865Z,1.70
2023-05-07T00:22:00.036Z,1.80
2023-05-07T00:24:27.264Z,1.77
2023-05-07T00:26:54.430Z,1.60
2023-05-07T00:29:21.632Z,1.60
2023-05-07T00:31:51.314Z,1.70
2023-05-07T00:34:18.579Z,1.80
2023-05-07T00:36:45.726Z,1.70
2023-05-07T00:39:12.899Z,1.70
2023-05-07T00:41:40.067Z,1.70
2023-05-07T00:44:07.699Z,1.80
2023-05-07T00:46:35.565Z,1.70
2023-05-07T00:49:03.066Z,1.80
2023-05-07T00:51:30.514Z,1.70
2023-05-07T00:53:57.963Z,1.60
2023-05-07T00:56:25.383Z,1.60
2023-05-07T00:58:52.723Z,1.67
2023-05-07T01:01:20.024Z,1.50
2023-05-07T01:03:47.349Z,1.70
2023-05-07T01:06:17.713Z,1.70
2023-05-07T01:08:45.783Z,1.83
2023-05-07T01:11:13.167Z,1.80
2023-05-07T01:13:40.996Z,1.70
2023-05-07T01:16:08.557Z,1.70
2023-05-07T01:18:36.331Z,1.70
2023-05-07T01:21:04.635Z,1.77
2023-05-07T01:23:32.390Z,1.77
2023-05-07T01:25:59.651Z,1.60
2023-05-07T01:28:26.878Z,1.70
2023-05-07T01:31:02.740Z,1.60
2023-05-07T01:33:32.539Z,1.70
2023-05-07T01:36:05.080Z,1.63
2023-05-07T01:38:32.648Z,1.70
2023-05-07T01:40:59.866Z,1.60
2023-05-07T01:43:27.140Z,1.50
2023-05-07T01:45:54.533Z,1.87
2023-05-07T01:48:21.806Z,1.40
2023-05-07T01:50:49.674Z,1.70
2023-05-07T01:53:16.955Z,1.53
2023-05-07T01:55:44.195Z,1.70
2023-05-07T01:58:11.782Z,1.57
2023-05-07T02:00:38.949Z,1.63
2023-05-07T02:03:06.831Z,1.60
2023-05-07T02:05:34.210Z,1.70
2023-05-07T02:08:01.426Z,1.50
2023-05-07T02:10:28.658Z,1.70
2023-05-07T02:12:55.924Z,1.77
2023-05-07T02:15:23.177Z,1.60
2023-05-07T02:18:00.315Z,1.90
2023-05-07T02:20:27.759Z,1.43
2023-05-07T02:22:54.955Z,1.73
2023-05-07T02:25:22.164Z,1.50
2023-05-07T02:27:49.349Z,1.70
2023-05-07T02:30:16.649Z,1.50
2023-05-07T02:32:45.160Z,1.70
2023-05-07T02:35:12.376Z,1.60
2023-05-07T02:37:39.536Z,1.80
2023-05-07T02:40:07.113Z,1.70
2023-05-07T02:42:34.302Z,1.70
2023-05-07T02:45:01.569Z,1.50
2023-05-07T02:47:29.640Z,1.70
2023-05-07T02:49:57.195Z,1.70
2023-05-07T02:52:24.403Z,1.63
2023-05-07T02:54:51.627Z,1.60
2023-05-07T02:57:18.922Z,1.70
2023-05-07T02:59:46.214Z,1.60
2023-05-07T03:02:13.392Z,1.80
2023-05-07T03:04:41.409Z,1.90
2023-05-07T03:07:08.584Z,1.70
2023-05-07T03:09:35.806Z,1.60
2023-05-07T03:12:03.090Z,1.70
2023-05-07T03:14:30.243Z,1.70
2023-05-07T03:16:57.504Z,1.70
2023-05-07T03:19:24.656Z,1.70
2023-05-07T03:21:52.011Z,1.80
2023-05-07T03:24:19.158Z,1.70
2023-05-07T03:26:46.358Z,1.80
2023-05-07T03:29:13.557Z,1.50
2023-05-07T03:31:40.780Z,1.90
2023-05-07T03:34:08.100Z,1.73
2023-05-07T03:36:35.250Z,1.93
2023-05-07T03:39:02.443Z,1.90
2023-05-07T03:41:30.690Z,1.93
2023-05-07T03:43:57.916Z,1.80
2023-05-07T03:46:27.328Z,1.90
2023-05-07T03:48:54.581Z,1.87
2023-05-07T03:51:21.735Z,1.80
2023-05-07T03:53:48.927Z,1.80
2023-05-07T03:56:17.731Z,1.90
2023-05-07T03:58:45.582Z,2.07
2023-05-07T04:01:13.139Z,1.93
2023-05-07T04:03:40.519Z,1.80
2023-05-07T04:06:07.821Z,1.80
2023-05-07T04:08:34.986Z,1.70
2023-05-07T04:11:02.235Z,1.70
2023-05-07T04:13:29.660Z,1.60
2023-05-07T04:15:57.046Z,1.80
2023-05-07T04:18:24.211Z,1.70
2023-05-07T04:20:51.420Z,1.90
2023-05-07T04:23:18.608Z,1.80
2023-05-07T04:25:46.254Z,1.73
2023-05-07T04:28:13.574Z,1.73
2023-05-07T04:30:40.777Z,1.67
2023-05-07T04:33:08.188Z,1.80
2023-05-07T04:35:35.556Z,1.60
2023-05-07T04:38:02.762Z,1.90
2023-05-07T04:40:29.951Z,1.80
2023-05-07T04:42:57.179Z,1.60
2023-05-07T04:45:24.391Z,1.70
2023-05-07T04:47:51.634Z,1.70
2023-05-07T04:50:20.397Z,1.67
2023-05-07T04:52:47.666Z,1.70
2023-05-07T04:55:14.835Z,1.80
2023-05-07T04:57:42.384Z,1.80
2023-05-07T05:00:10.298Z,1.60
2023-05-07T05:02:37.960Z,1.80
2023-05-07T05:05:05.452Z,1.83
2023-05-07T05:07:32.714Z,1.70
2023-05-07T05:10:00.051Z,1.83
2023-05-07T05:12:27.296Z,1.77
2023-05-07T05:14:54.468Z,1.70
2023-05-07T05:17:21.710Z,1.90
2023-05-07T05:19:49.020Z,1.83
2023-05-07T05:22:16.235Z,1.60
2023-05-07T05:24:43.435Z,1.70
2023-05-07T05:27:10.720Z,1.63
2023-05-07T05:29:38.036Z,1.60
2023-05-07T05:32:05.458Z,1.70
2023-05-07T05:34:34.169Z,1.70
2023-05-07T05:37:01.513Z,1.70
2023-05-07T05:39:28.681Z,1.90
2023-05-07T05:41:55.899Z,1.60
2023-05-07T05:44:23.090Z,1.80
2023-05-07T05:46:55.684Z,1.70
2023-05-07T05:49:23.209Z,1.60
2023-05-07T05:51:50.374Z,1.83
2023-05-07T05:54:17.569Z,1.97
2023-05-07T05:56:45.093Z,1.77
2023-05-07T05:59:12.422Z,1.70
2023-05-07T06:01:40.398Z,1.80
2023-05-07T06:04:07.548Z,1.77
2023-05-07T06:06:34.681Z,1.70
2023-05-07T06:09:01.828Z,1.60
2023-05-07T06:11:29.018Z,1.73
2023-05-07T06:13:56.189Z,1.80
2023-05-07T06:16:23.401Z,1.73
2023-05-07T06:18:50.662Z,1.60
2023-05-07T06:21:18.272Z,1.70
2023-05-07T06:23:45.585Z,1.73
2023-05-07T06:26:12.788Z,1.80
2023-05-07T06:28:39.991Z,1.60
2023-05-07T06:31:17.583Z,1.60
2023-05-07T06:33:45.390Z,1.80
2023-05-07T06:36:12.623Z,1.60
2023-05-07T06:38:39.822Z,1.80
2023-05-07T06:41:09.810Z,1.57
2023-05-07T06:43:37.505Z,1.57
2023-05-07T06:46:04.696Z,1.70
2023-05-07T06:48:31.873Z,1.63
2023-05-07T06:50:59.087Z,1.73
2023-05-07T06:53:27.018Z,1.50
2023-05-07T06:55:54.332Z,1.80
2023-05-07T06:58:21.624Z,1.80
2023-05-07T07:00:48.854Z,1.90
2023-05-07T07:03:16.250Z,1.80
2023-05-07T07:05:43.682Z,1.53
2023-05-07T07:08:11.737Z,1.60
2023-05-07T07:10:38.993Z,1.80
2023-05-07T07:13:06.350Z,1.70
2023-05-07T07:15:33.668Z,1.60
2023-05-07T07:18:00.903Z,1.70
2023-05-07T07:20:28.108Z,1.80
2023-05-07T07:22:55.276Z,1.70
2023-05-07T07:25:22.530Z,2.00
2023-05-07T07:27:49.809Z,1.90
2023-05-07T07:30:17.055Z,2.00
2023-05-07T07:32:44.338Z,1.93
2023-05-07T07:35:11.567Z,1.90
2023-05-07T07:37:38.830Z,1.90
2023-05-07T07:40:06.481Z,1.90
2023-05-07T07:42:33.671Z,2.03
2023-05-07T07:45:00.885Z,2.10
2023-05-07T07:47:28.044Z,2.00
2023-05-07T07:49:55.302Z,2.03
2023-05-07T07:52:22.502Z,2.20
2023-05-07T07:54:50.789Z,2.00
2023-05-07T07:57:17.965Z,2.17
2023-05-07T07:59:45.214Z,2.00
2023-05-07T08:02:12.592Z,2.03
2023-05-07T08:04:40.020Z,2.03
2023-05-07T08:07:07.438Z,1.90
2023-05-07T08:09:34.604Z,1.90
2023-05-07T08:12:02.172Z,1.80
2023-05-07T08:14:29.704Z,1.90
2023-05-07T08:16:57.012Z,2.00
2023-05-07T08:19:24.546Z,2.10
2023-05-07T08:21:51.792Z,1.80
2023-05-07T08:24:19.364Z,1.90
2023-05-07T08:26:47.727Z,1.77
2023-05-07T08:29:15.142Z,2.00
2023-05-07T08:31:42.404Z,1.70
2023-05-07T08:34:10.236Z,1.90
2023-05-07T08:36:37.669Z,1.83
2023-05-07T08:39:04.869Z,1.93
2023-05-07T08:41:32.280Z,1.90
2023-05-07T08:44:03.651Z,1.70
2023-05-07T08:46:33.280Z,1.70
2023-05-07T08:49:00.860Z,1.97
2023-05-07T08:51:28.195Z,1.80
2023-05-07T08:53:58.584Z,1.90
2023-05-07T08:56:26.179Z,1.80
2023-05-07T08:58:57.398Z,1.83
2023-05-07T09:01:24.666Z,2.10
2023-05-07T09:03:52.267Z,1.70
2023-05-07T09:06:20.906Z,1.77
2023-05-07T09:08:55.893Z,1.83
2023-05-07T09:11:23.831Z,1.80
2023-05-07T09:13:55.224Z,1.90
2023-05-07T09:16:23.188Z,1.80
2023-05-07T09:18:53.091Z,1.83
2023-05-07T09:21:21.090Z,1.73
2023-05-07T09:23:54.409Z,1.77
2023-05-07T09:26:25.336Z,1.70
2023-05-07T09:28:52.701Z,1.60
2023-05-07T09:31:21.626Z,1.90
2023-05-07T09:33:49.101Z,1.60
2023-05-07T09:36:16.717Z,1.90
2023-05-07T09:38:44.264Z,1.83
2023-05-07T09:41:12.400Z,1.80
2023-05-07T09:43:40.729Z,1.70
2023-05-07T09:46:15.170Z,1.80
2023-05-07T09:48:43.456Z,1.70
2023-05-07T09:51:36.691Z,1.87
2023-05-07T09:54:04.570Z,1.80
2023-05-07T09:56:33.504Z,1.60
2023-05-07T09:59:04.829Z,1.70
2023-05-07T10:01:33.487Z,1.70
2023-05-07T10:04:00.955Z,1.60
2023-05-07T10:06:28.179Z,1.60
2023-05-07T10:08:56.543Z,1.53
2023-05-07T10:11:24.172Z,1.67
2023-05-07T10:13:51.797Z,1.70
2023-05-07T10:16:19.181Z,1.67
2023-05-07T10:18:47.141Z,1.73
2023-05-07T10:21:21.557Z,1.77
2023-05-07T10:23:55.386Z,1.60
2023-05-07T10:26:23.580Z,1.73
2023-05-07T10:28:52.552Z,1.87
2023-05-07T10:31:29.090Z,1.80
2023-05-07T10:33:58.999Z,1.70
2023-05-07T10:36:26.366Z,1.60
2023-05-07T10:38:53.943Z,1.70
2023-05-07T10:41:22.172Z,1.70
2023-05-07T10:43:49.399Z,1.50
2023-05-07T10:46:21.143Z,1.60
2023-05-07T10:49:11.236Z,1.83
2023-05-07T10:51:39.614Z,1.63
2023-05-07T10:54:13.648Z,1.63
2023-05-07T10:56:44.005Z,1.60
2023-05-07T10:59:31.602Z,1.67
2023-05-07T11:02:00.097Z,1.90
2023-05-07T11:04:28.632Z,1.67
2023-05-07T11:07:09.408Z,1.73
2023-05-07T11:09:55.796Z,1.90
2023-05-07T11:12:41.140Z,1.70
2023-05-07T11:15:09.519Z,1.70
2023-05-07T11:17:53.479Z,1.60
2023-05-07T11:20:21.473Z,1.60
2023-05-07T11:22:49.050Z,1.73
2023-05-07T11:25:20.389Z,1.80
2023-05-07T11:27:47.662Z,1.77
2023-05-07T11:30:21.103Z,1.90
2023-05-07T11:32:49.700Z,1.70
2023-05-07T11:35:17.792Z,1.63
2023-05-07T11:37:46.301Z,1.90
2023-05-07T11:40:15.151Z,1.90
2023-05-07T11:42:44.190Z,1.77
2023-05-07T11:45:12.093Z,1.80
2023-05-07T11:47:39.696Z,1.98
2023-05-07T11:50:08.688Z,1.70
2023-05-07T11:52:36.375Z,1.70
2023-05-07T11:55:05.507Z,1.70
2023-05-07T11:57:35.561Z,1.73
2023-05-07T12:00:04.862Z,1.80
2023-05-07T12:02:32.565Z,1.75
2023-05-07T12:05:02.337Z,1.92
2023-05-07T12:07:29.553Z,1.85
2023-05-07T12:09:56.845Z,1.80
2023-05-07T12:12:24.036Z,1.90
2023-05-07T12:14:51.240Z,1.95
2023-05-07T12:17:18.871Z,1.90
2023-05-07T12:19:46.705Z,1.90
2023-05-07T12:22:14.459Z,1.98
2023-05-07T12:24:45.929Z,2.10
2023-05-07T12:27:13.122Z,2.00
2023-05-07T12:29:41.912Z,1.88
2023-05-07T12:32:14.682Z,1.80
2023-05-07T12:34:45.353Z,1.77
2023-05-07T12:37:13.908Z,1.80
2023-05-07T12:39:49.728Z,1.73
2023-05-07T12:42:17.393Z,1.75
2023-05-07T12:44:46.933Z,2.00
2023-05-07T12:47:14.171Z,2.05
2023-05-07T12:49:42.707Z,2.08
2023-05-07T12:52:09.950Z,1.90
2023-05-07T12:54:39.409Z,1.95
2023-05-07T12:57:07.642Z,1.95
2023-05-07T12:59:41.892Z,1.80
2023-05-07T13:02:09.884Z,1.80
2023-05-07T13:04:37.299Z,2.00
2023-05-07T13:07:04.613Z,2.00
2023-05-07T13:09:32.939Z,2.00
2023-05-07T13:12:03.028Z,1.92
2023-05-07T13:14:30.247Z,2.00
2023-05-07T13:16:57.437Z,1.80
2023-05-07T13:19:24.571Z,1.80
2023-05-07T13:21:51.781Z,1.80
2023-05-07T13:24:18.935Z,1.83
2023-05-07T13:26:46.379Z,1.70
2023-05-07T13:29:13.665Z,1.90
2023-05-07T13:31:43.917Z,1.92
2023-05-07T13:34:11.635Z,2.00
2023-05-07T13:36:40.930Z,1.92
2023-05-07T13:39:08.636Z,1.70
2023-05-07T13:41:36.049Z,1.90
2023-05-07T13:44:03.216Z,1.90
2023-05-07T13:46:31.010Z,1.77
2023-05-07T13:48:58.339Z,2.00
2023-05-07T13:51:25.643Z,2.08
2023-05-07T13:53:53.669Z,1.80
2023-05-07T13:56:21.317Z,2.10
2023-05-07T13:58:58.829Z,2.03
2023-05-07T14:01:27.519Z,2.10
2023-05-07T14:03:54.793Z,2.10
2023-05-07T14:06:22.899Z,2.15
2023-05-07T14:08:50.062Z,2.00
2023-05-07T14:11:17.517Z,2.00
2023-05-07T14:13:44.702Z,2.30
2023-05-07T14:16:11.874Z,2.33
2023-05-07T14:18:39.626Z,2.20
2023-05-07T14:21:10.826Z,2.00
2023-05-07T14:23:38.140Z,2.30
2023-05-07T14:26:05.516Z,2.30
2023-05-07T14:28:32.676Z,2.00
2023-05-07T14:31:00.803Z,2.23
2023-05-07T14:33:28.025Z,2.30
2023-05-07T14:35:55.802Z,2.50
2023-05-07T14:38:22.956Z,2.30
2023-05-07T14:40:50.373Z,2.00
2023-05-07T14:43:17.559Z,2.20
2023-05-07T14:45:44.723Z,2.30
2023-05-07T14:48:16.085Z,2.03
2023-05-07T14:50:43.971Z,2.10
2023-05-07T14:53:11.137Z,2.20
2023-05-07T14:55:38.328Z,2.30
2023-05-07T14:58:05.603Z,2.20
2023-05-07T15:00:34.526Z,2.20
2023-05-07T15:03:12.031Z,2.00
2023-05-07T15:05:39.310Z,2.47
2023-05-07T15:08:06.532Z,2.10
2023-05-07T15:10:41.209Z,2.30
2023-05-07T15:13:09.754Z,2.20
2023-05-07T15:15:38.739Z,2.20
2023-05-07T15:18:06.132Z,2.40
2023-05-07T15:20:33.390Z,2.03
2023-05-07T15:23:00.719Z,2.10
2023-05-07T15:25:28.150Z,2.40
2023-05-07T15:27:55.337Z,2.30
2023-05-07T15:30:22.771Z,2.40
2023-05-07T15:32:50.359Z,2.13
2023-05-07T15:35:22.707Z,2.40
2023-05-07T15:37:50.859Z,2.23
2023-05-07T15:40:18.471Z,2.20
2023-05-07T15:42:48.827Z,2.50
2023-05-07T15:45:16.059Z,2.40
2023-05-07T15:47:43.360Z,2.40
2023-05-07T15:50:10.915Z,2.40
2023-05-07T15:52:39.065Z,2.67
2023-05-07T15:55:07.357Z,2.10
2023-05-07T15:57:34.561Z,2.00
2023-05-07T16:00:01.842Z,2.40
2023-05-07T16:02:29.108Z,2.13
2023-05-07T16:04:56.290Z,2.20
2023-05-07T16:07:24.401Z,2.10
2023-05-07T16:09:51.757Z,2.00
2023-05-07T16:12:18.927Z,2.13
2023-05-07T16:14:46.408Z,2.20
2023-05-07T16:17:13.590Z,1.95
2023-05-07T16:19:40.835Z,2.03
2023-05-07T16:22:07.998Z,2.17
2023-05-07T16:24:35.297Z,2.13
2023-05-07T16:27:02.560Z,2.20
2023-05-07T16:29:29.865Z,2.15
2023-05-07T16:31:58.867Z,2.50
2023-05-07T16:34:26.109Z,2.55
2023-05-07T16:36:53.328Z,2.50
2023-05-07T16:39:20.935Z,2.25
2023-05-07T16:41:51.138Z,2.47
2023-05-07T16:44:18.521Z,2.30
2023-05-07T16:46:45.861Z,2.65
2023-05-07T16:49:13.055Z,2.20
2023-05-07T16:51:43.219Z,2.30
2023-05-07T16:54:10.467Z,2.20
2023-05-07T16:56:37.660Z,2.50
2023-05-07T16:59:04.846Z,2.40
2023-05-07T17:01:32.755Z,2.13
2023-05-07T17:04:00.118Z,2.33
2023-05-07T17:06:27.445Z,2.33
2023-05-07T17:08:54.652Z,2.10
2023-05-07T17:11:22.558Z,2.10
2023-05-07T17:13:50.429Z,2.40
2023-05-07T17:16:17.613Z,2.53
2023-05-07T17:18:44.814Z,2.30
2023-05-07T17:21:11.986Z,2.28
2023-05-07T17:23:39.196Z,2.33
2023-05-07T17:26:12.291Z,2.25
2023-05-07T17:28:39.456Z,2.50
2023-05-07T17:31:06.964Z,2.28
2023-05-07T17:33:34.191Z,2.30
2023-05-07T17:36:03.133Z,2.30
2023-05-07T17:38:31.391Z,2.30
2023-05-07T17:41:00.253Z,2.28
2023-05-07T17:43:27.483Z,2.40
2023-05-07T17:45:54.780Z,2.33
2023-05-07T17:48:22.060Z,2.38
2023-05-07T17:50:49.239Z,2.38
2023-05-07T17:53:16.435Z,2.20
2023-05-07T17:55:44.913Z,2.28
2023-05-07T17:58:12.858Z,2.40
2023-05-07T18:00:40.264Z,2.40
2023-05-07T18:03:07.607Z,2.50
2023-05-07T18:05:36.731Z,2.40
2023-05-07T18:08:04.136Z,2.47
2023-05-07T18:10:31.336Z,2.70
2023-05-07T18:12:58.603Z,2.50
2023-05-07T18:15:25.817Z,2.27
2023-05-07T18:17:53.120Z,2.53
2023-05-07T18:20:20.515Z,2.30
2023-05-07T18:22:47.734Z,2.03
2023-05-07T18:25:14.955Z,2.27
2023-05-07T18:27:42.171Z,2.30
2023-05-07T18:30:09.708Z,2.20
2023-05-07T18:32:37.123Z,2.20
2023-05-07T18:35:04.390Z,2.33
2023-05-07T18:37:31.594Z,2.33
2023-05-07T18:40:01.823Z,2.43
2023-05-07T18:42:29.064Z,2.50
2023-05-07T18:44:56.362Z,2.30
2023-05-07T18:47:23.595Z,2.20
2023-05-07T18:49:50.836Z,2.53
2023-05-07T18:52:21.114Z,2.50
2023-05-07T18:54:48.698Z,2.53
2023-05-07T18:57:16.752Z,2.20
2023-05-07T18:59:43.951Z,2.33
2023-05-07T19:02:13.894Z,2.20
2023-05-07T19:04:41.162Z,2.37
2023-05-07T19:07:08.568Z,2.20
2023-05-07T19:09:35.796Z,2.20
2023-05-07T19:12:03.031Z,2.13
2023-05-07T19:14:30.319Z,2.40
2023-05-07T19:16:57.594Z,2.20
2023-05-07T19:19:24.827Z,2.20
2023-05-07T19:21:52.134Z,2.30
2023-05-07T19:24:19.453Z,2.20
2023-05-07T19:26:46.675Z,2.00
2023-05-07T19:29:18.051Z,2.40
2023-05-07T19:31:46.021Z,2.13
2023-05-07T19:34:14.061Z,2.40
2023-05-07T19:36:41.644Z,2.40
2023-05-07T19:39:09.251Z,2.60
2023-05-07T19:41:36.533Z,2.40
2023-05-07T19:44:03.720Z,2.50
2023-05-07T19:46:30.967Z,2.27
2023-05-07T19:48:58.146Z,2.40
2023-05-07T19:51:25.844Z,2.57
2023-05-07T19:53:52.976Z,2.80
2023-05-07T19:56:20.145Z,2.50
2023-05-07T19:58:47.357Z,2.50
2023-05-07T20:01:14.532Z,2.90
2023-05-07T20:03:42.479Z,2.77
2023-05-07T20:06:09.720Z,2.60
2023-05-07T20:08:36.986Z,2.80
2023-05-07T20:11:04.171Z,2.70
2023-05-07T20:13:31.385Z,2.57
2023-05-07T20:16:02.725Z,2.80
2023-05-07T20:18:30.370Z,2.80
2023-05-07T20:20:57.572Z,2.93
2023-05-07T20:23:25.076Z,2.60
2023-05-07T20:25:52.508Z,2.40
2023-05-07T20:28:19.838Z,2.80
2023-05-07T20:30:47.221Z,2.47
2023-05-07T20:33:14.713Z,2.53
2023-05-07T20:35:42.386Z,2.53
2023-05-07T20:38:09.615Z,2.97
2023-05-07T20:40:37.958Z,2.90
2023-05-07T20:43:06.624Z,2.70
2023-05-07T20:45:33.974Z,2.77
2023-05-07T20:48:01.307Z,2.47
2023-05-07T20:50:28.721Z,2.50
2023-05-07T20:52:55.919Z,2.63
2023-05-07T20:55:23.075Z,2.60
2023-05-07T20:57:50.425Z,2.60
2023-05-07T21:00:18.365Z,4.97
2023-05-07T21:02:45.968Z,2.60
2023-05-07T21:05:13.195Z,2.53
2023-05-07T21:07:40.411Z,2.60
2023-05-07T21:10:07.849Z,2.30
2023-05-07T21:12:35.082Z,2.30
2023-05-07T21:15:02.363Z,2.17
2023-05-07T21:17:31.645Z,2.30
2023-05-07T21:19:58.956Z,2.57
2023-05-07T21:22:26.142Z,2.53
2023-05-07T21:24:53.391Z,2.20
2023-05-07T21:27:20.635Z,2.20
2023-05-07T21:29:47.820Z,2.87
2023-05-07T21:32:15.346Z,2.20
2023-05-07T21:34:42.603Z,2.37
2023-05-07T21:37:09.766Z,2.60
2023-05-07T21:39:36.942Z,2.60
2023-05-07T21:42:04.122Z,2.53
2023-05-07T21:44:31.978Z,2.50
2023-05-07T21:46:59.162Z,2.67
2023-05-07T21:49:26.402Z,2.77
2023-05-07T21:51:53.585Z,2.77
2023-05-07T21:54:20.917Z,2.80
2023-05-07T21:56:49.995Z,2.70
2023-05-07T21:59:17.687Z,2.67
2023-05-07T22:01:44.901Z,2.73
2023-05-07T22:04:12.207Z,2.70
2023-05-07T22:06:39.411Z,2.67
2023-05-07T22:09:07.991Z,2.57
2023-05-07T22:11:35.230Z,2.60
2023-05-07T22:14:02.551Z,2.80
2023-05-07T22:16:29.816Z,2.73
2023-05-07T22:18:57.002Z,2.60
2023-05-07T22:21:24.228Z,2.43
2023-05-07T22:23:51.450Z,2.50
2023-05-07T22:26:18.661Z,2.50
2023-05-07T22:28:45.846Z,2.67
2023-05-07T22:31:13.039Z,2.60
2023-05-07T22:33:40.322Z,3.07
2023-05-07T22:36:07.845Z,2.73
2023-05-07T22:38:35.120Z,2.67
2023-05-07T22:41:02.358Z,2.60
2023-05-07T22:43:29.534Z,2.67
2023-05-07T22:46:03.104Z,2.90
2023-05-07T22:48:30.656Z,2.90
2023-05-07T22:50:57.848Z,2.80
2023-05-07T22:53:25.359Z,2.87
2023-05-07T22:55:52.586Z,2.87
2023-05-07T22:58:20.222Z,2.97
2023-05-07T23:00:47.692Z,2.73
2023-05-07T23:03:17.839Z,3.00
2023-05-07T23:05:45.352Z,2.90
2023-05-07T23:08:12.773Z,2.93
2023-05-07T23:10:39.971Z,3.17
2023-05-07T23:13:09.374Z,2.80
2023-05-07T23:15:36.682Z,3.00
2023-05-07T23:18:03.992Z,2.90
2023-05-07T23:20:32.232Z,2.80
2023-05-07T23:22:59.418Z,2.70
2023-05-07T23:25:26.628Z,2.80
2023-05-07T23:27:53.825Z,3.10
2023-05-07T23:30:21.127Z,2.90
2023-05-07T23:32:48.450Z,2.87
2023-05-07T23:35:15.624Z,2.83
2023-05-07T23:37:42.898Z,2.80
2023-05-07T23:40:10.288Z,2.73
2023-05-07T23:42:37.617Z,2.50
2023-05-07T23:45:04.926Z,2.93
2023-05-07T23:47:32.148Z,2.70
2023-05-07T23:49:59.347Z,2.80
2023-05-07T23:52:26.675Z,3.10
2023-05-07T23:54:53.893Z,2.87
2023-05-07T23:57:21.047Z,2.90
2023-05-07T23:59:48.231Z,3.03
